createdAt,value
2023-05-06T00:00:12.371Z,486.1667
2023-05-06T00:01:14.719Z,484.4167
2023-05-06T00:02:16.981Z,485.1667
2023-05-06T00:03:18.690Z,484.2500
2023-05-06T00:04:22.079Z,481.9167
2023-05-06T00:05:23.888Z,482.0000
2023-05-06T00:06:25.616Z,478.8333
2023-05-06T00:07:28.076Z,480.1538
2023-05-06T00:08:30.383Z,473.9091
2023-05-06T00:09:32.661Z,470.9167
2023-05-06T00:10:35.114Z,466.2308
2023-05-06T00:11:38.117Z,462.1667
2023-05-06T00:12:39.676Z,461.6667
2023-05-06T00:13:42.013Z,463.0000
2023-05-06T00:14:44.959Z,460.9231
2023-05-06T00:15:46.657Z,461.4167
2023-05-06T00:16:49.066Z,461.9167
2023-05-06T00:17:51.760Z,460.3333
2023-05-06T00:18:54.090Z,458.2500
2023-05-06T00:19:56.025Z,458.5833
2023-05-06T00:20:58.359Z,460.3077
2023-05-06T00:22:00.692Z,461.6923
2023-05-06T00:23:03.025Z,461.3077
2023-05-06T00:24:05.464Z,460.6154
2023-05-06T00:25:08.134Z,461.1538
2023-05-06T00:26:10.190Z,463.4167
2023-05-06T00:27:12.499Z,463.6667
2023-05-06T00:28:14.812Z,464.5000
2023-05-06T00:29:17.793Z,462.0000
2023-05-06T00:30:21.511Z,461.6667
2023-05-06T00:31:22.351Z,462.0833
2023-05-06T00:32:24.348Z,464.2500
2023-05-06T00:33:26.421Z,470.2500
2023-05-06T00:34:28.979Z,474.1538
2023-05-06T00:35:31.161Z,476.7500
2023-05-06T00:36:33.764Z,477.7500
2023-05-06T00:37:35.791Z,480.5000
2023-05-06T00:38:39.850Z,483.6154
2023-05-06T00:39:41.872Z,482.0000
2023-05-06T00:40:42.894Z,479.9167
2023-05-06T00:41:45.140Z,478.2500
2023-05-06T00:42:47.457Z,478.1667
2023-05-06T00:43:49.813Z,479.0000
2023-05-06T00:44:52.168Z,476.3846
2023-05-06T00:45:54.557Z,475.8462
2023-05-06T00:46:56.783Z,477.4615
2023-05-06T00:47:59.238Z,477.6923
2023-05-06T00:49:01.515Z,476.1667
2023-05-06T00:50:03.817Z,474.8462
2023-05-06T00:51:06.154Z,475.6154
2023-05-06T00:52:08.485Z,479.8462
2023-05-06T00:53:10.821Z,483.8462
2023-05-06T00:54:13.164Z,504.9231
2023-05-06T00:55:15.565Z,513.1539
2023-05-06T00:56:20.017Z,507.9231
2023-05-06T00:57:20.168Z,506.6667
2023-05-06T00:58:22.510Z,503.7273
2023-05-06T00:59:24.879Z,496.9231
2023-05-06T01:00:27.195Z,490.0000
2023-05-06T01:01:29.582Z,487.8462
2023-05-06T01:02:43.282Z,486.2500
2023-05-06T01:03:34.292Z,484.5454
2023-05-06T01:04:36.559Z,484.9091
2023-05-06T01:05:38.866Z,487.7692
2023-05-06T01:06:41.195Z,487.7692
2023-05-06T01:07:43.542Z,484.5385
2023-05-06T01:08:45.885Z,478.5385
2023-05-06T01:09:48.289Z,473.9231
2023-05-06T01:10:50.713Z,465.4615
2023-05-06T01:11:52.975Z,459.5385
2023-05-06T01:12:55.376Z,458.3846
2023-05-06T01:13:57.657Z,465.2500
2023-05-06T01:15:00.033Z,466.5385
2023-05-06T01:16:02.336Z,467.2308
2023-05-06T01:17:04.705Z,477.3846
2023-05-06T01:18:07.051Z,482.4615
2023-05-06T01:19:09.376Z,481.5833
2023-05-06T01:20:11.738Z,479.9091
2023-05-06T01:21:14.014Z,482.6154
2023-05-06T01:22:16.358Z,483.5385
2023-05-06T01:23:18.713Z,483.1538
2023-05-06T01:24:21.054Z,482.5385
2023-05-06T01:25:23.391Z,478.2308
2023-05-06T01:26:25.808Z,475.9231
2023-05-06T01:27:28.145Z,471.1667
2023-05-06T01:28:30.428Z,469.7273
2023-05-06T01:29:32.832Z,469.3077
2023-05-06T01:30:35.105Z,470.3636
2023-05-06T01:31:37.509Z,474.3077
2023-05-06T01:32:39.783Z,473.7500
2023-05-06T01:33:42.114Z,472.8182
2023-05-06T01:34:44.593Z,472.3846
2023-05-06T01:35:46.837Z,467.3333
2023-05-06T01:36:49.147Z,469.0000
2023-05-06T01:37:51.552Z,465.2308
2023-05-06T01:38:53.784Z,462.9167
2023-05-06T01:39:56.144Z,460.6154
2023-05-06T01:40:58.488Z,460.6154
2023-05-06T01:42:00.824Z,463.3333
2023-05-06T01:43:03.181Z,460.2308
2023-05-06T01:44:05.453Z,460.5000
2023-05-06T01:45:08.170Z,462.4615
2023-05-06T01:46:10.357Z,462.3333
2023-05-06T01:47:12.649Z,462.9167
2023-05-06T01:48:14.852Z,464.0000
2023-05-06T01:49:17.199Z,463.8462
2023-05-06T01:50:19.476Z,466.0000
2023-05-06T01:51:21.896Z,465.6923
2023-05-06T01:52:24.183Z,464.7500
2023-05-06T01:53:26.527Z,468.6154
2023-05-06T01:54:28.870Z,469.8462
2023-05-06T01:55:31.198Z,470.3077
2023-05-06T01:56:33.555Z,468.8462
2023-05-06T01:57:35.937Z,468.7692
2023-05-06T01:58:38.209Z,470.5385
2023-05-06T01:59:40.555Z,468.7692
2023-05-06T02:00:42.891Z,465.7692
2023-05-06T02:01:45.283Z,464.3077
2023-05-06T02:02:47.716Z,464.9231
2023-05-06T02:03:50.064Z,471.6667
2023-05-06T02:04:52.232Z,475.1667
2023-05-06T02:05:54.564Z,478.8462
2023-05-06T02:06:56.918Z,479.5000
2023-05-06T02:07:59.209Z,478.3077
2023-05-06T02:09:01.573Z,476.8462
2023-05-06T02:10:03.919Z,473.3077
2023-05-06T02:11:06.253Z,474.0000
2023-05-06T02:12:08.647Z,479.2308
2023-05-06T02:13:11.054Z,480.4167
2023-05-06T02:14:13.257Z,483.6667
2023-05-06T02:15:15.709Z,480.5385
2023-05-06T02:16:17.979Z,479.7500
2023-05-06T02:17:20.369Z,481.0000
2023-05-06T02:18:22.745Z,480.9167
2023-05-06T02:19:24.959Z,476.8333
2023-05-06T02:20:27.342Z,473.3077
2023-05-06T02:21:29.802Z,470.2500
2023-05-06T02:22:31.991Z,468.4167
2023-05-06T02:23:34.318Z,470.6923
2023-05-06T02:24:36.904Z,472.9231
2023-05-06T02:25:39.133Z,478.0909
2023-05-06T02:26:41.462Z,481.4167
2023-05-06T02:27:43.743Z,482.0000
2023-05-06T02:28:46.102Z,485.1667
2023-05-06T02:29:48.348Z,486.5833
2023-05-06T02:30:50.692Z,488.4615
2023-05-06T02:31:53.171Z,485.0769
2023-05-06T02:32:55.422Z,482.0833
2023-05-06T02:33:57.809Z,479.1667
2023-05-06T02:35:00.065Z,479.4546
2023-05-06T02:36:02.809Z,480.9231
2023-05-06T02:37:04.707Z,480.3333
2023-05-06T02:38:07.082Z,479.9231
2023-05-06T02:39:09.572Z,483.6923
2023-05-06T02:40:11.843Z,482.5000
2023-05-06T02:41:14.097Z,477.0000
2023-05-06T02:42:16.614Z,470.1667
2023-05-06T02:43:19.217Z,468.0000
2023-05-06T02:44:21.176Z,471.6667
2023-05-06T02:45:23.465Z,466.9231
2023-05-06T02:46:25.799Z,465.3077
2023-05-06T02:47:28.179Z,471.1538
2023-05-06T02:48:30.491Z,475.4615
2023-05-06T02:49:32.855Z,475.5385
2023-05-06T02:50:35.162Z,475.3846
2023-05-06T02:51:37.496Z,475.7692
2023-05-06T02:52:39.841Z,473.3846
2023-05-06T02:53:42.178Z,469.8462
2023-05-06T02:54:44.530Z,466.5385
2023-05-06T02:55:47.008Z,464.7692
2023-05-06T02:56:49.210Z,466.5000
2023-05-06T02:57:51.552Z,468.0000
2023-05-06T02:58:53.919Z,468.5385
2023-05-06T02:59:56.316Z,467.6923
2023-05-06T03:00:58.592Z,463.9231
2023-05-06T03:02:00.917Z,464.3846
2023-05-06T03:03:03.267Z,458.9091
2023-05-06T03:04:05.632Z,459.0769
2023-05-06T03:05:08.163Z,457.3846
2023-05-06T03:06:10.283Z,451.0833
2023-05-06T03:07:12.614Z,453.8462
2023-05-06T03:08:14.959Z,457.2308
2023-05-06T03:09:17.319Z,456.4546
2023-05-06T03:10:19.644Z,457.2308
2023-05-06T03:11:21.986Z,460.3077
2023-05-06T03:12:24.321Z,458.0769
2023-05-06T03:13:26.657Z,457.6923
2023-05-06T03:14:29.007Z,457.5454
2023-05-06T03:15:31.417Z,456.6154
2023-05-06T03:16:33.678Z,454.1538
2023-05-06T03:17:36.145Z,452.6923
2023-05-06T03:18:38.379Z,452.1667
2023-05-06T03:19:40.724Z,452.9231
2023-05-06T03:20:43.055Z,454.0000
2023-05-06T03:21:45.452Z,455.3077
2023-05-06T03:22:47.727Z,458.8462
2023-05-06T03:23:50.090Z,456.4615
2023-05-06T03:24:52.435Z,457.4615
2023-05-06T03:25:54.749Z,454.8462
2023-05-06T03:26:57.070Z,456.5385
2023-05-06T03:27:59.422Z,454.4615
2023-05-06T03:29:01.783Z,456.2308
2023-05-06T03:30:04.138Z,457.0769
2023-05-06T03:31:06.745Z,458.0769
2023-05-06T03:32:08.809Z,457.5833
2023-05-06T03:33:11.126Z,456.5385
2023-05-06T03:34:13.491Z,457.0000
2023-05-06T03:35:15.860Z,461.1538
2023-05-06T03:36:18.172Z,464.3636
2023-05-06T03:37:20.519Z,462.6923
2023-05-06T03:38:22.842Z,460.4615
2023-05-06T03:39:25.188Z,460.0769
2023-05-06T03:40:27.573Z,460.9231
2023-05-06T03:41:29.891Z,461.3077
2023-05-06T03:42:32.232Z,458.7692
2023-05-06T03:43:34.552Z,458.4615
2023-05-06T03:44:36.892Z,460.3846
2023-05-06T03:45:39.201Z,458.9231
2023-05-06T03:46:41.953Z,457.8462
2023-05-06T03:47:43.932Z,454.2500
2023-05-06T03:48:46.242Z,452.9167
2023-05-06T03:49:48.613Z,454.8462
2023-05-06T03:50:50.959Z,457.4615
2023-05-06T03:51:53.279Z,461.8462
2023-05-06T03:52:55.619Z,465.3846
2023-05-06T03:53:57.957Z,467.2308
2023-05-06T03:55:00.304Z,467.3077
2023-05-06T03:56:02.656Z,463.1538
2023-05-06T03:57:04.979Z,462.4615
2023-05-06T03:58:07.315Z,464.3077
2023-05-06T03:59:09.655Z,465.6154
2023-05-06T04:00:11.970Z,466.0909
2023-05-06T04:01:14.337Z,464.8462
2023-05-06T04:02:16.853Z,465.6154
2023-05-06T04:03:19.089Z,466.5000
2023-05-06T04:04:21.374Z,464.8333
2023-05-06T04:05:23.720Z,467.7692
2023-05-06T04:06:26.058Z,468.6923
2023-05-06T04:07:28.392Z,466.3077
2023-05-06T04:08:30.745Z,466.0833
2023-05-06T04:09:33.088Z,467.6923
2023-05-06T04:10:35.420Z,466.6923
2023-05-06T04:11:37.759Z,467.9231
2023-05-06T04:12:40.106Z,469.1538
2023-05-06T04:13:42.460Z,473.0769
2023-05-06T04:14:45.225Z,474.9231
2023-05-06T04:15:47.824Z,474.5833
2023-05-06T04:16:49.472Z,477.3333
2023-05-06T04:17:52.062Z,477.4615
2023-05-06T04:18:54.162Z,473.6667
2023-05-06T04:19:56.469Z,471.3846
2023-05-06T04:20:58.964Z,468.0833
2023-05-06T04:22:01.508Z,468.5000
2023-05-06T04:23:03.524Z,467.9167
2023-05-06T04:24:06.393Z,465.7500
2023-05-06T04:25:08.401Z,462.5000
2023-05-06T04:26:10.966Z,461.4167
2023-05-06T04:27:13.970Z,462.7500
2023-05-06T04:28:15.654Z,465.2500
2023-05-06T04:29:17.626Z,469.7500
2023-05-06T04:30:19.922Z,472.5385
2023-05-06T04:31:22.272Z,473.4615
2023-05-06T04:32:24.609Z,475.3077
2023-05-06T04:33:26.959Z,477.3333
2023-05-06T04:34:29.301Z,476.5385
2023-05-06T04:35:31.633Z,476.5385
2023-05-06T04:36:33.992Z,475.8333
2023-05-06T04:37:36.513Z,474.5000
2023-05-06T04:38:38.667Z,472.1667
2023-05-06T04:39:41.010Z,471.4546
2023-05-06T04:40:43.480Z,470.0000
2023-05-06T04:41:45.656Z,471.1667
2023-05-06T04:42:48.006Z,470.8182
2023-05-06T04:43:50.306Z,472.2308
2023-05-06T04:44:52.695Z,472.8462
2023-05-06T04:45:55.050Z,472.5385
2023-05-06T04:46:57.383Z,474.3077
2023-05-06T04:47:59.732Z,474.8462
2023-05-06T04:49:02.122Z,476.1538
2023-05-06T04:50:04.422Z,481.5385
2023-05-06T04:51:06.718Z,481.1538
2023-05-06T04:52:09.066Z,483.6923
2023-05-06T04:53:11.400Z,485.4615
2023-05-06T04:54:13.761Z,485.3077
2023-05-06T04:55:16.122Z,480.4615
2023-05-06T04:56:18.434Z,479.9231
2023-05-06T04:57:20.774Z,480.0769
2023-05-06T04:58:23.120Z,479.2308
2023-05-06T04:59:25.482Z,478.7692
2023-05-06T05:00:27.820Z,480.7692
2023-05-06T05:01:30.206Z,483.0000
2023-05-06T05:02:32.573Z,482.0769
2023-05-06T05:03:34.920Z,481.1667
2023-05-06T05:04:37.171Z,479.8333
2023-05-06T05:05:39.530Z,477.4615
2023-05-06T05:06:41.864Z,474.9231
2023-05-06T05:07:44.193Z,476.2308
2023-05-06T05:08:46.551Z,476.9231
2023-05-06T05:09:48.885Z,476.7692
2023-05-06T05:10:51.245Z,480.0000
2023-05-06T05:11:53.568Z,474.3846
2023-05-06T05:12:55.952Z,472.1538
2023-05-06T05:13:59.579Z,473.0000
2023-05-06T05:15:00.717Z,476.4167
2023-05-06T05:16:03.044Z,476.6923
2023-05-06T05:17:05.418Z,473.7500
2023-05-06T05:18:07.820Z,473.0000
2023-05-06T05:19:10.060Z,472.3333
2023-05-06T05:20:12.411Z,470.6154
2023-05-06T05:21:14.760Z,470.3077
2023-05-06T05:22:17.088Z,471.6923
2023-05-06T05:23:19.426Z,472.3846
2023-05-06T05:24:21.765Z,470.8462
2023-05-06T05:25:24.104Z,472.2308
2023-05-06T05:26:26.450Z,473.1538
2023-05-06T05:27:28.801Z,472.0000
2023-05-06T05:28:31.139Z,468.6154
2023-05-06T05:29:33.482Z,467.4615
2023-05-06T05:30:35.819Z,467.2727
2023-05-06T05:31:38.190Z,466.7692
2023-05-06T05:32:40.507Z,466.8462
2023-05-06T05:33:42.889Z,465.3077
2023-05-06T05:34:45.203Z,466.2308
2023-05-06T05:35:47.609Z,468.4167
2023-05-06T05:36:49.873Z,465.3077
2023-05-06T05:37:52.213Z,466.9231
2023-05-06T05:38:54.569Z,466.4546
2023-05-06T05:39:56.899Z,465.3846
2023-05-06T05:40:59.234Z,462.1538
2023-05-06T05:42:01.587Z,460.1538
2023-05-06T05:43:03.916Z,461.0769
2023-05-06T05:44:06.259Z,459.1538
2023-05-06T05:45:08.706Z,459.2500
2023-05-06T05:46:10.951Z,458.0000
2023-05-06T05:47:13.272Z,456.2727
2023-05-06T05:48:15.616Z,455.7692
2023-05-06T05:49:17.967Z,455.4615
2023-05-06T05:50:20.296Z,454.5385
2023-05-06T05:51:22.820Z,454.5385
2023-05-06T05:52:24.978Z,455.8333
2023-05-06T05:53:27.317Z,455.6154
2023-05-06T05:54:29.698Z,455.9231
2023-05-06T05:55:31.995Z,457.5385
2023-05-06T05:56:34.338Z,457.6923
2023-05-06T05:57:37.504Z,458.8462
2023-05-06T05:58:39.062Z,458.1667
2023-05-06T05:59:41.414Z,458.7500
2023-05-06T06:00:44.040Z,458.4167
2023-05-06T06:01:46.465Z,458.2500
2023-05-06T06:02:48.426Z,455.7500
2023-05-06T06:03:50.948Z,458.3077
2023-05-06T06:04:53.249Z,458.3333
2023-05-06T06:05:55.596Z,457.4167
2023-05-06T06:06:57.917Z,459.1667
2023-05-06T06:08:02.210Z,459.0833
2023-05-06T06:09:02.400Z,458.6364
2023-05-06T06:10:04.787Z,458.6154
2023-05-06T06:11:07.168Z,458.9167
2023-05-06T06:12:09.424Z,458.3333
2023-05-06T06:13:11.877Z,457.6154
2023-05-06T06:14:14.171Z,457.3333
2023-05-06T06:15:16.459Z,458.2500
2023-05-06T06:16:18.855Z,458.3333
2023-05-06T06:17:21.677Z,458.0000
2023-05-06T06:18:23.467Z,456.6364
2023-05-06T06:19:25.823Z,456.8333
2023-05-06T06:20:28.154Z,455.9231
2023-05-06T06:21:30.635Z,453.9231
2023-05-06T06:22:32.991Z,452.6667
2023-05-06T06:23:35.241Z,451.9167
2023-05-06T06:24:37.539Z,450.7500
2023-05-06T06:25:39.996Z,448.9167
2023-05-06T06:26:42.277Z,448.4167
2023-05-06T06:27:44.605Z,451.9167
2023-05-06T06:28:47.030Z,451.1667
2023-05-06T06:29:49.205Z,449.2500
2023-05-06T06:30:52.605Z,444.5385
2023-05-06T06:31:54.862Z,444.1667
2023-05-06T06:32:56.483Z,445.6667
2023-05-06T06:33:58.907Z,446.6667
2023-05-06T06:35:00.890Z,446.5833
2023-05-06T06:36:03.232Z,446.2308
2023-05-06T06:37:07.806Z,446.2308
2023-05-06T06:38:12.313Z,445.1667
2023-05-06T06:39:10.239Z,445.0000
2023-05-06T06:40:14.890Z,445.4615
2023-05-06T06:41:15.096Z,446.4167
2023-05-06T06:42:17.789Z,445.3333
2023-05-06T06:43:19.593Z,445.5833
2023-05-06T06:44:22.857Z,446.9231
2023-05-06T06:45:24.811Z,444.8333
2023-05-06T06:46:26.627Z,446.7500
2023-05-06T06:47:29.055Z,448.2308
2023-05-06T06:48:31.366Z,448.5833
2023-05-06T06:49:33.728Z,445.3333
2023-05-06T06:50:35.975Z,443.2727
2023-05-06T06:51:38.310Z,444.4167
2023-05-06T06:52:40.720Z,445.8462
2023-05-06T06:53:43.120Z,445.0000
2023-05-06T06:54:45.334Z,449.2500
2023-05-06T06:55:47.770Z,449.2500
2023-05-06T06:56:50.007Z,448.7500
2023-05-06T06:57:52.345Z,445.9091
2023-05-06T06:58:54.665Z,446.7692
2023-05-06T06:59:57.136Z,449.3077
2023-05-06T07:00:59.406Z,446.9167
2023-05-06T07:02:01.671Z,447.6364
2023-05-06T07:03:04.139Z,443.7692
2023-05-06T07:04:07.227Z,442.5833
2023-05-06T07:05:08.992Z,443.5833
2023-05-06T07:06:11.009Z,442.8333
2023-05-06T07:07:13.511Z,443.7500
2023-05-06T07:08:16.059Z,443.4546
2023-05-06T07:09:18.100Z,446.0833
2023-05-06T07:10:20.730Z,448.0833
2023-05-06T07:11:22.802Z,448.0909
2023-05-06T07:12:25.234Z,449.5000
2023-05-06T07:13:27.438Z,450.6667
2023-05-06T07:14:29.736Z,448.5000
2023-05-06T07:15:32.200Z,448.3846
2023-05-06T07:16:34.409Z,452.3636
2023-05-06T07:17:36.919Z,452.5000
2023-05-06T07:18:39.814Z,453.6667
2023-05-06T07:19:41.422Z,453.8333
2023-05-06T07:20:43.798Z,452.5000
2023-05-06T07:21:46.120Z,450.2500
2023-05-06T07:22:48.471Z,451.9231
2023-05-06T07:23:50.816Z,451.6667
2023-05-06T07:24:53.287Z,450.7500
2023-05-06T07:25:55.539Z,451.5000
2023-05-06T07:26:58.055Z,451.9167
2023-05-06T07:28:00.139Z,450.5000
2023-05-06T07:29:11.842Z,450.3846
2023-05-06T07:30:04.888Z,445.2727
2023-05-06T07:31:07.356Z,444.3333
2023-05-06T07:32:09.589Z,446.3333
2023-05-06T07:33:11.970Z,446.2500
2023-05-06T07:34:14.566Z,444.2500
2023-05-06T07:35:16.536Z,442.3333
2023-05-06T07:36:18.853Z,441.9167
2023-05-06T07:37:21.229Z,441.6667
2023-05-06T07:38:23.558Z,442.5454
2023-05-06T07:39:25.958Z,442.9167
2023-05-06T07:40:28.294Z,443.0833
2023-05-06T07:41:30.551Z,448.5000
2023-05-06T07:42:32.935Z,448.4615
2023-05-06T07:43:35.327Z,453.2308
2023-05-06T07:44:37.588Z,451.8333
2023-05-06T07:45:40.022Z,449.1538
2023-05-06T07:46:42.440Z,445.0833
2023-05-06T07:47:44.687Z,440.5000
2023-05-06T07:48:46.986Z,436.9167
2023-05-06T07:49:49.316Z,445.7500
2023-05-06T07:50:51.965Z,456.0833
2023-05-06T07:51:54.032Z,448.6667
2023-05-06T07:52:56.597Z,443.0833
2023-05-06T07:53:58.762Z,440.1667
2023-05-06T07:55:01.008Z,441.5833
2023-05-06T07:56:03.425Z,490.5000
2023-05-06T07:57:06.159Z,521.5833
2023-05-06T07:58:08.012Z,530.1667
2023-05-06T07:59:10.477Z,495.0000
2023-05-06T08:00:12.878Z,467.8333
2023-05-06T08:01:15.041Z,449.5454
2023-05-06T08:02:17.591Z,443.0000
2023-05-06T08:03:20.219Z,444.1667
2023-05-06T08:04:22.754Z,445.5833
2023-05-06T08:05:25.467Z,443.5000
2023-05-06T08:06:27.395Z,439.0000
2023-05-06T08:07:29.279Z,436.0000
2023-05-06T08:08:31.541Z,432.9167
2023-05-06T08:09:34.030Z,441.4546
2023-05-06T08:10:36.250Z,444.9167
2023-05-06T08:11:39.137Z,447.6667
2023-05-06T08:12:40.879Z,455.8333
2023-05-06T08:13:43.262Z,480.0833
2023-05-06T08:14:47.174Z,509.5000
2023-05-06T08:15:47.961Z,472.8333
2023-05-06T08:16:50.415Z,447.2500
2023-05-06T08:17:52.965Z,440.2727
2023-05-06T08:18:55.454Z,447.0833
2023-05-06T08:19:57.288Z,461.7500
2023-05-06T08:20:59.623Z,501.0833
2023-05-06T08:22:02.285Z,528.7500
2023-05-06T08:23:04.713Z,498.2500
2023-05-06T08:24:06.781Z,450.8333
2023-05-06T08:25:11.006Z,438.9167
2023-05-06T08:26:11.330Z,439.0833
2023-05-06T08:27:15.013Z,458.2500
2023-05-06T08:28:15.958Z,459.0833
2023-05-06T08:29:18.405Z,461.1538
2023-05-06T08:30:20.674Z,480.0833
2023-05-06T08:31:23.028Z,471.0833
2023-05-06T08:32:25.530Z,475.9167
2023-05-06T08:33:27.694Z,476.0000
2023-05-06T08:34:30.024Z,469.6154
2023-05-06T08:35:32.419Z,460.6154
2023-05-06T08:36:34.672Z,451.3333
2023-05-06T08:37:37.167Z,449.1538
2023-05-06T08:38:39.390Z,450.7500
2023-05-06T08:39:41.741Z,447.0000
2023-05-06T08:40:44.054Z,444.4615
2023-05-06T08:41:46.425Z,441.0000
2023-05-06T08:42:48.764Z,440.9167
2023-05-06T08:43:51.073Z,440.5833
2023-05-06T08:44:53.466Z,441.3846
2023-05-06T08:45:55.861Z,439.6923
2023-05-06T08:46:58.142Z,445.9167
2023-05-06T08:48:00.519Z,442.6154
2023-05-06T08:49:02.824Z,438.2500
2023-05-06T08:50:05.170Z,433.3077
2023-05-06T08:51:07.540Z,441.9231
2023-05-06T08:52:09.862Z,454.5000
2023-05-06T08:53:12.259Z,444.4167
2023-05-06T08:54:14.534Z,441.6667
2023-05-06T08:55:17.579Z,440.8462
2023-05-06T08:56:19.253Z,466.0833
2023-05-06T08:57:21.568Z,498.0833
2023-05-06T08:58:23.986Z,500.2727
2023-05-06T08:59:26.328Z,552.1539
2023-05-06T09:00:28.695Z,584.5833
2023-05-06T09:01:31.071Z,571.6667
2023-05-06T09:02:33.424Z,493.1667
2023-05-06T09:03:35.691Z,476.9167
2023-05-06T09:04:38.042Z,464.0769
2023-05-06T09:05:40.368Z,459.0833
2023-05-06T09:06:42.738Z,474.0000
2023-05-06T09:07:45.199Z,460.5000
2023-05-06T09:08:47.401Z,439.1667
2023-05-06T09:09:49.803Z,431.3846
2023-05-06T09:10:52.147Z,430.2500
2023-05-06T09:11:54.468Z,426.6667
2023-05-06T09:12:56.957Z,441.1538
2023-05-06T09:13:59.275Z,469.2500
2023-05-06T09:15:01.547Z,476.6667
2023-05-06T09:16:03.887Z,465.7500
2023-05-06T09:17:06.273Z,448.6923
2023-05-06T09:18:08.689Z,439.5000
2023-05-06T09:19:10.938Z,435.7273
2023-05-06T09:20:13.342Z,436.9167
2023-05-06T09:21:15.658Z,448.5385
2023-05-06T09:22:18.028Z,463.1538
2023-05-06T09:23:20.376Z,463.0769
2023-05-06T09:24:22.787Z,452.0000
2023-05-06T09:25:25.118Z,451.1667
2023-05-06T09:26:27.450Z,450.5833
2023-05-06T09:27:29.762Z,435.9167
2023-05-06T09:28:32.139Z,433.6154
2023-05-06T09:29:34.504Z,438.2308
2023-05-06T09:30:36.829Z,439.6923
2023-05-06T09:31:39.215Z,443.7273
2023-05-06T09:32:41.568Z,447.1667
2023-05-06T09:33:43.858Z,443.1538
2023-05-06T09:34:47.622Z,447.1818
2023-05-06T09:35:48.628Z,447.3333
2023-05-06T09:36:51.140Z,444.9091
2023-05-06T09:38:12.447Z,442.4167
2023-05-06T09:39:03.249Z,445.2857
2023-05-06T09:39:57.955Z,442.8182
2023-05-06T09:41:01.903Z,443.8462
2023-05-06T09:42:02.737Z,446.7500
2023-05-06T09:43:05.076Z,443.4615
2023-05-06T09:44:07.405Z,441.1538
2023-05-06T09:45:10.023Z,444.8462
2023-05-06T09:46:12.077Z,449.2500
2023-05-06T09:47:14.445Z,442.5385
2023-05-06T09:48:18.947Z,440.0769
2023-05-06T09:49:20.777Z,439.7500
2023-05-06T09:50:21.738Z,434.5000
2023-05-06T09:51:23.847Z,437.6667
2023-05-06T09:52:26.194Z,436.7692
2023-05-06T09:53:28.544Z,436.9231
2023-05-06T09:54:30.912Z,435.7692
2023-05-06T09:55:33.258Z,435.3077
2023-05-06T09:56:35.637Z,435.6667
2023-05-06T09:57:37.932Z,433.9231
2023-05-06T09:58:40.628Z,435.9231
2023-05-06T09:59:42.666Z,436.6667
2023-05-06T10:00:45.068Z,435.1538
2023-05-06T10:01:47.416Z,434.1538
2023-05-06T10:02:50.007Z,429.5000
2023-05-06T10:03:52.218Z,427.0833
2023-05-06T10:04:54.698Z,426.9167
2023-05-06T10:05:56.779Z,428.1667
2023-05-06T10:06:59.102Z,428.1538
2023-05-06T10:08:01.433Z,429.6154
2023-05-06T10:09:03.784Z,434.3846
2023-05-06T10:10:06.165Z,434.0000
2023-05-06T10:11:08.515Z,430.6154
2023-05-06T10:12:10.887Z,425.5385
2023-05-06T10:13:13.236Z,422.6154
2023-05-06T10:14:15.569Z,423.8462
2023-05-06T10:15:17.909Z,427.6923
2023-05-06T10:16:20.341Z,430.6154
2023-05-06T10:17:22.638Z,427.6923
2023-05-06T10:18:24.947Z,425.3077
2023-05-06T10:19:27.304Z,426.3846
2023-05-06T10:20:29.643Z,426.9231
2023-05-06T10:21:32.008Z,423.7692
2023-05-06T10:22:34.361Z,422.0769
2023-05-06T10:23:36.698Z,425.6923
2023-05-06T10:24:39.067Z,430.5385
2023-05-06T10:25:41.409Z,430.8462
2023-05-06T10:26:43.774Z,431.8462
2023-05-06T10:27:46.110Z,433.0000
2023-05-06T10:28:48.456Z,433.2500
2023-05-06T10:29:50.797Z,432.1538
2023-05-06T10:30:53.142Z,429.4615
2023-05-06T10:31:55.820Z,426.4615
2023-05-06T10:32:57.918Z,423.3333
2023-05-06T10:34:00.241Z,420.8462
2023-05-06T10:35:02.587Z,417.6154
2023-05-06T10:36:04.941Z,417.0000
2023-05-06T10:37:07.287Z,419.8462
2023-05-06T10:38:09.630Z,422.4615
2023-05-06T10:39:11.980Z,423.6154
2023-05-06T10:40:14.336Z,424.2308
2023-05-06T10:41:16.690Z,425.0769
2023-05-06T10:42:19.050Z,425.1538
2023-05-06T10:43:21.400Z,428.3846
2023-05-06T10:44:23.719Z,427.7692
2023-05-06T10:45:26.105Z,426.6923
2023-05-06T10:46:28.455Z,427.8462
2023-05-06T10:47:30.919Z,425.9231
2023-05-06T10:48:33.131Z,424.3077
2023-05-06T10:49:35.504Z,422.7692
2023-05-06T10:50:37.842Z,424.0769
2023-05-06T10:51:40.206Z,423.4615
2023-05-06T10:52:42.551Z,421.3846
2023-05-06T10:53:44.889Z,419.7692
2023-05-06T10:54:47.266Z,422.3846
2023-05-06T10:55:49.601Z,421.0769
2023-05-06T10:56:51.955Z,420.0000
2023-05-06T10:57:54.288Z,418.6923
2023-05-06T10:58:56.617Z,420.3846
2023-05-06T10:59:58.986Z,420.3077
2023-05-06T11:01:01.381Z,417.5385
2023-05-06T11:02:03.699Z,417.7692
2023-05-06T11:03:06.199Z,419.0000
2023-05-06T11:04:08.395Z,418.8333
2023-05-06T11:05:10.992Z,420.3846
2023-05-06T11:06:13.076Z,420.0000
2023-05-06T11:07:15.416Z,418.6154
2023-05-06T11:08:17.760Z,417.1538
2023-05-06T11:09:20.128Z,415.8462
2023-05-06T11:10:22.471Z,413.6923
2023-05-06T11:11:24.862Z,411.6154
2023-05-06T11:12:27.177Z,412.1538
2023-05-06T11:13:29.655Z,412.3077
2023-05-06T11:14:32.377Z,415.2500
2023-05-06T11:15:34.220Z,416.9167
2023-05-06T11:16:38.684Z,414.2308
2023-05-06T11:17:38.941Z,415.8333
2023-05-06T11:18:41.349Z,415.2308
2023-05-06T11:19:43.640Z,414.8462
2023-05-06T11:20:45.980Z,413.8462
2023-05-06T11:21:50.060Z,411.4615
2023-05-06T11:22:50.684Z,411.5833
2023-05-06T11:23:52.991Z,411.0000
2023-05-06T11:24:55.374Z,411.2308
2023-05-06T11:25:57.722Z,413.7692
2023-05-06T11:27:00.054Z,410.6154
2023-05-06T11:28:02.427Z,409.0000
2023-05-06T11:29:04.743Z,412.0000
2023-05-06T11:30:07.140Z,413.4615
2023-05-06T11:31:09.558Z,413.5385
2023-05-06T11:32:11.801Z,413.0000
2023-05-06T11:33:14.305Z,416.0769
2023-05-06T11:34:16.649Z,417.9167
2023-05-06T11:35:18.865Z,415.1667
2023-05-06T11:36:21.212Z,418.6923
2023-05-06T11:37:23.569Z,440.4615
2023-05-06T11:38:25.876Z,460.6154
2023-05-06T11:39:28.226Z,499.0000
2023-05-06T11:40:30.569Z,509.2308
2023-05-06T11:41:32.940Z,565.3077
2023-05-06T11:42:35.284Z,569.1539
2023-05-06T11:43:37.633Z,546.6154
2023-05-06T11:44:39.970Z,485.4615
2023-05-06T11:45:42.331Z,497.0000
2023-05-06T11:46:44.701Z,567.5385
2023-05-06T11:47:47.152Z,628.4615
2023-05-06T11:48:49.333Z,513.4167
2023-05-06T11:49:51.780Z,516.3077
2023-05-06T11:50:54.063Z,635.2308
2023-05-06T11:51:56.398Z,632.2308
2023-05-06T11:52:58.721Z,513.8461
2023-05-06T11:54:01.107Z,507.7692
2023-05-06T11:55:03.443Z,512.8461
2023-05-06T11:56:05.975Z,518.3846
2023-05-06T11:57:08.160Z,476.5000
2023-05-06T11:58:10.500Z,449.5000
2023-05-06T11:59:12.882Z,457.9231
2023-05-06T12:00:15.775Z,493.6667
2023-05-06T12:01:46.341Z,379.0000
2023-05-06T12:02:48.794Z,391.8462
2023-05-06T12:03:51.218Z,399.8333
2023-05-06T12:04:53.592Z,444.5833
2023-05-06T12:05:56.054Z,484.4167
2023-05-06T12:06:58.388Z,490.7273
2023-05-06T12:08:00.442Z,455.8333
2023-05-06T12:09:02.835Z,442.9231
2023-05-06T12:10:05.184Z,441.9167
2023-05-06T12:11:07.666Z,436.0769
2023-05-06T12:12:09.868Z,435.1667